createdAt,value
2024-01-22T00:00:46.996Z,101254.97
2024-01-22T00:03:12.253Z,101258.69
2024-01-22T00:05:36.127Z,101257.91
2024-01-22T00:08:00.234Z,101257.97
2024-01-22T00:10:23.938Z,101255.25
2024-01-22T00:12:48.052Z,101254.97
2024-01-22T00:15:12.102Z,101255.56
2024-01-22T00:17:35.900Z,101256.78
2024-01-22T00:20:01.137Z,101247.28
2024-01-22T00:22:24.856Z,101234.66
2024-01-22T00:24:48.978Z,101231.41
2024-01-22T00:27:12.740Z,101220.72
2024-01-22T00:29:36.852Z,101218.47
2024-01-22T00:32:00.572Z,101194.44
2024-01-22T00:34:24.394Z,101197.38
2024-01-22T00:36:50.751Z,101195.41
2024-01-22T00:39:14.533Z,101192.03
2024-01-22T00:41:38.246Z,101195.91
2024-01-22T00:44:01.972Z,101186.28
2024-01-22T00:46:25.648Z,101191.41
2024-01-22T00:48:49.541Z,101192.47
2024-01-22T00:51:13.616Z,101193.78
2024-01-22T00:53:38.782Z,101188.91
2024-01-22T00:56:02.537Z,101182.16
2024-01-22T00:58:26.255Z,101175.59
2024-01-22T01:00:50.178Z,101155.44
2024-01-22T01:03:14.040Z,101146.88
2024-01-22T01:05:38.050Z,101147.09
2024-01-22T01:08:01.802Z,101140.88
2024-01-22T01:10:26.870Z,101139.06
2024-01-22T01:12:50.699Z,101132.88
2024-01-22T01:15:14.461Z,101133.81
2024-01-22T01:17:39.011Z,101138.16
2024-01-22T01:20:05.088Z,101132.34
2024-01-22T01:22:28.869Z,101121.97
2024-01-22T01:24:53.240Z,101129.81
2024-01-22T01:27:20.470Z,101127.44
2024-01-22T01:29:44.190Z,101118.25
2024-01-22T01:32:08.873Z,101115.44
2024-01-22T01:34:32.916Z,101114.97
2024-01-22T01:36:56.725Z,101101.16
2024-01-22T01:39:20.442Z,101109.63
2024-01-22T01:41:44.175Z,101102.63
2024-01-22T01:44:09.329Z,101100.97
2024-01-22T01:46:33.116Z,101102.59
2024-01-22T01:48:57.907Z,101069.41
2024-01-22T01:51:22.772Z,101075.44
2024-01-22T01:53:48.095Z,101064.81
2024-01-22T01:56:12.356Z,101077.00
2024-01-22T01:58:36.181Z,101077.09
2024-01-22T02:01:02.788Z,101059.50
2024-01-22T02:03:27.232Z,101044.78
2024-01-22T02:05:51.115Z,101045.50
2024-01-22T02:08:14.893Z,101048.25
2024-01-22T02:10:38.631Z,101035.22
2024-01-22T02:13:04.782Z,101028.19
2024-01-22T02:15:28.556Z,101015.50
2024-01-22T02:17:53.790Z,101027.59
2024-01-22T02:20:17.928Z,101014.50
2024-01-22T02:22:41.620Z,101008.09
2024-01-22T02:25:08.733Z,101013.88
2024-01-22T02:27:32.431Z,101027.47
2024-01-22T02:29:56.250Z,100999.97
2024-01-22T02:32:19.950Z,100984.19
2024-01-22T02:34:43.740Z,100976.50
2024-01-22T02:37:07.384Z,100972.66
2024-01-22T02:39:31.254Z,100984.72
2024-01-22T02:41:56.409Z,100977.63
2024-01-22T02:44:20.257Z,100974.16
2024-01-22T02:46:43.913Z,100969.31
2024-01-22T02:49:09.989Z,100954.84
2024-01-22T02:51:33.773Z,100968.28
2024-01-22T02:53:57.600Z,100944.94
2024-01-22T02:56:21.767Z,100958.44
2024-01-22T02:58:47.078Z,100950.63
2024-01-22T03:01:10.802Z,100951.78
2024-01-22T03:03:34.574Z,100952.72
2024-01-22T03:05:58.374Z,100939.19
2024-01-22T03:08:22.154Z,100932.31
2024-01-22T03:10:46.967Z,100921.84
2024-01-22T03:13:10.734Z,100914.13
2024-01-22T03:15:35.867Z,100908.31
2024-01-22T03:17:59.754Z,100907.94
2024-01-22T03:20:23.814Z,100902.06
2024-01-22T03:22:47.558Z,100910.34
2024-01-22T03:25:13.393Z,100902.31
2024-01-22T03:27:37.385Z,100899.78
2024-01-22T03:30:01.861Z,100892.00
2024-01-22T03:32:27.063Z,100892.22
2024-01-22T03:34:50.783Z,100885.53
2024-01-22T03:37:14.603Z,100884.00
2024-01-22T03:39:38.548Z,100889.81
2024-01-22T03:42:02.309Z,100881.81
2024-01-22T03:44:26.020Z,100877.53
2024-01-22T03:46:49.781Z,100869.66
2024-01-22T03:49:13.930Z,100853.41
2024-01-22T03:51:37.754Z,100878.09
2024-01-22T03:54:01.563Z,100847.78
2024-01-22T03:56:25.353Z,100824.97
2024-01-22T03:58:49.010Z,100826.56
2024-01-22T04:01:21.147Z,100818.94
2024-01-22T04:03:44.976Z,100826.31
2024-01-22T04:06:10.512Z,100800.41
2024-01-22T04:08:34.304Z,100789.75
2024-01-22T04:10:57.958Z,100793.78
2024-01-22T04:13:29.630Z,100799.31
2024-01-22T04:15:58.853Z,100786.59
2024-01-22T04:18:22.677Z,100785.91
2024-01-22T04:20:46.765Z,100777.47
2024-01-22T04:23:12.044Z,100797.31
2024-01-22T04:25:35.789Z,100784.00
2024-01-22T04:27:59.554Z,100795.94
2024-01-22T04:30:23.633Z,100822.38
2024-01-22T04:32:47.519Z,100793.53
2024-01-22T04:35:11.516Z,100788.72
2024-01-22T04:37:35.164Z,100787.00
2024-01-22T04:40:11.417Z,100784.50
2024-01-22T04:42:35.193Z,100782.19
2024-01-22T04:44:58.898Z,100777.31
2024-01-22T04:47:22.679Z,100770.38
2024-01-22T04:49:46.441Z,100760.06
2024-01-22T04:52:10.931Z,100735.88
2024-01-22T04:54:34.616Z,100693.28
2024-01-22T04:56:59.838Z,100630.75
2024-01-22T04:59:23.896Z,100629.91
2024-01-22T05:01:47.615Z,100713.31
2024-01-22T05:04:11.511Z,100670.84
2024-01-22T05:06:35.486Z,100662.94
2024-01-22T05:08:59.584Z,100647.72
2024-01-22T05:11:23.809Z,100655.53
2024-01-22T05:13:52.443Z,100621.50
2024-01-22T05:16:16.170Z,100586.59
2024-01-22T05:18:40.041Z,100637.00
2024-01-22T05:21:03.951Z,100640.44
2024-01-22T05:23:28.185Z,100622.63
2024-01-22T05:25:51.860Z,100623.53
2024-01-22T05:28:15.517Z,100603.66
2024-01-22T05:30:40.633Z,100597.56
2024-01-22T05:33:04.397Z,100607.53
2024-01-22T05:35:28.207Z,100617.44
2024-01-22T05:37:52.062Z,100596.59
2024-01-22T05:40:16.040Z,100583.38
2024-01-22T05:42:39.763Z,100574.13
2024-01-22T05:45:04.956Z,100573.47
2024-01-22T05:47:30.254Z,100599.16
2024-01-22T05:49:53.971Z,100576.41
2024-01-22T05:52:17.641Z,100568.53
2024-01-22T05:54:42.942Z,100561.44
2024-01-22T05:57:07.074Z,100565.59
2024-01-22T05:59:31.193Z,100569.38
2024-01-22T06:01:58.000Z,100559.66
2024-01-22T06:04:24.478Z,100534.41
2024-01-22T06:06:48.502Z,100528.31
2024-01-22T06:09:12.378Z,100535.16
2024-01-22T06:11:36.477Z,100523.66
2024-01-22T06:14:02.499Z,100520.38
2024-01-22T06:16:26.678Z,100527.91
2024-01-22T06:18:50.479Z,100522.94
2024-01-22T06:21:15.591Z,100525.81
2024-01-22T06:23:39.466Z,100520.63
2024-01-22T06:26:03.439Z,100525.75
2024-01-22T06:28:28.017Z,100533.03
2024-01-22T06:30:51.685Z,100529.81
2024-01-22T06:33:15.617Z,100523.53
2024-01-22T06:35:39.445Z,100523.97
2024-01-22T06:38:06.787Z,100529.53
2024-01-22T06:40:31.888Z,100522.16
2024-01-22T06:42:55.637Z,100527.97
2024-01-22T06:45:19.561Z,100516.28
2024-01-22T06:47:43.423Z,100511.28
2024-01-22T06:50:08.527Z,100509.34
2024-01-22T06:52:32.564Z,100506.91
2024-01-22T06:54:58.243Z,100498.00
2024-01-22T06:57:22.038Z,100488.56
2024-01-22T06:59:45.763Z,100475.13
2024-01-22T07:02:09.652Z,100484.94
2024-01-22T07:04:33.595Z,100487.94
2024-01-22T07:06:57.402Z,100493.41
2024-01-22T07:09:21.187Z,100471.13
2024-01-22T07:11:47.908Z,100459.22
2024-01-22T07:14:11.636Z,100459.50
2024-01-22T07:16:35.343Z,100466.44
2024-01-22T07:18:59.166Z,100453.88
2024-01-22T07:21:23.165Z,100459.63
2024-01-22T07:23:47.044Z,100463.84
2024-01-22T07:26:10.865Z,100461.28
2024-01-22T07:28:35.941Z,100465.28
2024-01-22T07:30:59.684Z,100449.22
2024-01-22T07:33:23.492Z,100447.06
2024-01-22T07:35:47.675Z,100443.59
2024-01-22T07:38:11.389Z,100433.41
2024-01-22T07:40:35.132Z,100440.31
2024-01-22T07:42:58.836Z,100432.31
2024-01-22T07:45:24.145Z,100433.66
2024-01-22T07:47:47.985Z,100429.41
2024-01-22T07:50:14.356Z,100430.84
2024-01-22T07:52:38.166Z,100439.50
2024-01-22T07:55:01.932Z,100416.91
2024-01-22T07:57:25.663Z,100420.94
2024-01-22T07:59:49.450Z,100430.78
2024-01-22T08:02:14.643Z,100428.47
2024-01-22T08:04:38.867Z,100445.22
2024-01-22T08:07:04.595Z,100424.69
2024-01-22T08:09:28.469Z,100442.97
2024-01-22T08:11:52.647Z,100432.44
2024-01-22T08:14:16.512Z,100441.63
2024-01-22T08:16:40.164Z,100428.06
2024-01-22T08:19:05.657Z,100427.88
2024-01-22T08:21:29.492Z,100441.44
2024-01-22T08:23:53.277Z,100435.88
2024-01-22T08:26:17.052Z,100412.59
2024-01-22T08:28:40.768Z,100424.13
2024-01-22T08:31:04.435Z,100427.25
2024-01-22T08:33:28.667Z,100420.75
2024-01-22T08:35:53.929Z,100414.22
2024-01-22T08:38:17.719Z,100414.84
2024-01-22T08:40:41.971Z,100411.56
2024-01-22T08:43:06.844Z,100418.34
2024-01-22T08:45:30.695Z,100405.81
2024-01-22T08:47:54.571Z,100401.22
2024-01-22T08:50:20.522Z,100418.59
2024-01-22T08:52:46.140Z,100414.34
2024-01-22T08:55:10.603Z,100398.66
2024-01-22T08:57:34.669Z,100396.41
2024-01-22T08:59:58.615Z,100398.84
2024-01-22T09:02:22.314Z,100412.19
2024-01-22T09:04:46.032Z,100399.41
2024-01-22T09:07:09.775Z,100403.78
2024-01-22T09:09:35.344Z,100403.47
2024-01-22T09:11:59.118Z,100395.97
2024-01-22T09:14:22.837Z,100400.22
2024-01-22T09:16:46.602Z,100396.31
2024-01-22T09:19:10.493Z,100391.16
2024-01-22T09:21:34.425Z,100392.22
2024-01-22T09:23:58.142Z,100379.72
2024-01-22T09:26:23.355Z,100391.03
2024-01-22T09:28:46.993Z,100390.41
2024-01-22T09:31:10.786Z,100370.84
2024-01-22T09:33:34.595Z,100377.47
2024-01-22T09:35:58.624Z,100373.41
2024-01-22T09:38:23.097Z,100370.09
2024-01-22T09:40:47.381Z,100369.56
2024-01-22T09:43:12.882Z,100372.44
2024-01-22T09:45:36.956Z,100360.22
2024-01-22T09:48:01.783Z,100357.41
2024-01-22T09:50:26.506Z,100360.22
2024-01-22T09:52:54.276Z,100349.72
2024-01-22T09:55:18.487Z,100350.91
2024-01-22T09:57:45.219Z,100357.97
2024-01-22T10:00:13.991Z,100347.06
2024-01-22T10:02:39.231Z,100349.28
2024-01-22T10:05:05.973Z,100328.19
2024-01-22T10:07:31.139Z,100324.06
2024-01-22T10:09:56.125Z,100324.44
2024-01-22T10:12:22.395Z,100320.91
2024-01-22T10:14:48.181Z,100305.97
2024-01-22T10:17:22.394Z,100316.19
2024-01-22T10:19:48.702Z,100306.84
2024-01-22T10:22:13.957Z,100313.53
2024-01-22T10:24:41.290Z,100300.53
2024-01-22T10:27:17.382Z,100298.63
2024-01-22T10:29:43.083Z,100293.88
2024-01-22T10:32:08.710Z,100292.06
2024-01-22T10:34:48.962Z,100281.38
2024-01-22T10:37:15.390Z,100285.34
2024-01-22T10:39:41.490Z,100289.88
2024-01-22T10:42:13.115Z,100290.59
2024-01-22T10:44:37.218Z,100276.25
2024-01-22T10:47:05.007Z,100281.25
2024-01-22T10:49:30.223Z,100280.75
2024-01-22T10:51:56.621Z,100270.66
2024-01-22T10:54:23.780Z,100260.16
2024-01-22T10:56:53.732Z,100260.53
2024-01-22T10:59:22.539Z,100263.56
2024-01-22T11:01:47.351Z,100263.22
2024-01-22T11:04:12.859Z,100243.00
2024-01-22T11:06:41.866Z,100242.50
2024-01-22T11:09:09.502Z,100238.72
2024-01-22T11:11:38.065Z,100229.69
2024-01-22T11:14:03.132Z,100224.28
2024-01-22T11:16:27.297Z,100223.84
2024-01-22T11:19:00.386Z,100218.84
2024-01-22T11:21:25.808Z,100211.31
2024-01-22T11:24:24.627Z,100205.53
2024-01-22T11:27:06.876Z,100205.59
2024-01-22T11:29:33.752Z,100213.63
2024-01-22T11:31:58.673Z,100202.97
2024-01-22T11:34:47.951Z,100200.88
2024-01-22T11:37:13.730Z,100200.44
2024-01-22T11:39:48.829Z,100186.00
2024-01-22T11:42:30.632Z,100183.66
2024-01-22T11:44:54.883Z,100185.53
2024-01-22T11:47:19.160Z,100186.78
2024-01-22T11:49:43.618Z,100188.81
2024-01-22T11:52:12.657Z,100195.28
2024-01-22T11:54:36.581Z,100175.84
2024-01-22T11:57:02.251Z,100175.25
2024-01-22T11:59:26.068Z,100178.06
2024-01-22T12:01:49.780Z,100174.88
2024-01-22T12:04:18.006Z,100178.88
2024-01-22T12:06:51.425Z,100179.59
2024-01-22T12:11:39.458Z,100166.25
2024-01-22T12:14:06.077Z,100165.19
2024-01-22T12:16:30.367Z,100163.56
2024-01-22T12:18:54.403Z,100163.00
2024-01-22T12:21:18.254Z,100158.22
2024-01-22T12:23:42.658Z,100159.97
2024-01-22T12:26:13.858Z,100152.31
2024-01-22T12:28:37.571Z,100144.28
2024-01-22T12:31:07.095Z,100142.91
2024-01-22T12:33:35.045Z,100144.47
2024-01-22T12:36:10.526Z,100128.34
2024-01-22T12:38:39.606Z,100121.31
2024-01-22T12:41:09.570Z,100120.94
2024-01-22T12:43:34.440Z,100125.56
2024-01-22T12:46:08.342Z,100131.47
2024-01-22T12:48:32.929Z,100133.06
2024-01-22T12:50:57.246Z,100132.53
2024-01-22T12:53:21.458Z,100133.75
2024-01-22T12:55:45.843Z,100123.16
2024-01-22T12:58:12.782Z,100127.53
2024-01-22T13:00:36.580Z,100120.09
2024-01-22T13:03:02.119Z,100114.88
2024-01-22T13:05:26.244Z,100110.34
2024-01-22T13:07:49.938Z,100106.50
2024-01-22T13:10:13.607Z,100098.19
2024-01-22T13:12:38.461Z,100106.66
2024-01-22T13:15:02.289Z,100098.72
2024-01-22T13:17:26.358Z,100108.53
2024-01-22T13:19:52.472Z,100095.03
2024-01-22T13:22:16.811Z,100095.06
2024-01-22T13:24:43.313Z,100093.09
2024-01-22T13:27:08.137Z,100088.03
2024-01-22T13:29:31.945Z,100083.91
2024-01-22T13:31:56.882Z,100087.19
2024-01-22T13:34:21.458Z,100082.94
2024-01-22T13:36:46.911Z,100070.31
2024-01-22T13:39:11.171Z,100070.66
2024-01-22T13:41:35.046Z,100082.09
2024-01-22T13:43:59.103Z,100061.19
2024-01-22T13:46:24.137Z,100063.16
2024-01-22T13:48:50.514Z,100049.88
2024-01-22T13:51:15.099Z,100055.38
2024-01-22T13:53:40.245Z,100063.47
2024-01-22T13:56:05.123Z,100063.44
2024-01-22T13:58:29.394Z,100046.75
2024-01-22T14:00:53.149Z,100056.66
2024-01-22T14:03:17.439Z,100051.16
2024-01-22T14:05:41.293Z,100054.00
2024-01-22T14:08:05.235Z,100046.47
2024-01-22T14:10:30.501Z,100047.34
2024-01-22T14:12:54.217Z,100040.81
2024-01-22T14:15:18.054Z,100044.38
2024-01-22T14:17:41.776Z,100050.59
2024-01-22T14:20:08.199Z,100053.00
2024-01-22T14:22:31.868Z,100049.63
2024-01-22T14:24:55.925Z,100052.72
2024-01-22T14:27:21.678Z,100057.53
2024-01-22T14:29:45.761Z,100060.34
2024-01-22T14:32:09.997Z,100050.44
2024-01-22T14:34:33.924Z,100038.44
2024-01-22T14:36:58.809Z,100043.38
2024-01-22T14:39:22.723Z,100052.72
2024-01-22T14:41:47.280Z,100043.09
2024-01-22T14:44:13.669Z,100060.59
2024-01-22T14:46:42.310Z,100058.91
2024-01-22T14:49:12.930Z,100069.38
2024-01-22T14:51:45.488Z,100052.84
2024-01-22T14:54:09.149Z,100055.81
2024-01-22T14:56:32.918Z,100060.63
2024-01-22T14:58:57.464Z,100057.53
2024-01-22T15:01:24.291Z,100053.00
2024-01-22T15:03:48.048Z,100065.13
2024-01-22T15:06:11.874Z,100069.13
2024-01-22T15:08:36.560Z,100075.03
2024-01-22T15:11:01.562Z,100076.44
2024-01-22T15:13:25.226Z,100080.69
2024-01-22T15:15:48.967Z,100086.34
2024-01-22T15:18:14.415Z,100088.13
2024-01-22T15:20:38.385Z,100098.19
2024-01-22T15:23:02.051Z,100098.19
2024-01-22T15:25:25.927Z,100096.47
2024-01-22T15:27:49.731Z,100111.28
2024-01-22T15:30:14.830Z,100107.84
2024-01-22T15:32:38.663Z,100110.09
2024-01-22T15:35:07.158Z,100121.88
2024-01-22T15:37:31.728Z,100126.25
2024-01-22T15:39:55.966Z,100129.31
2024-01-22T15:42:19.833Z,100119.25
2024-01-22T15:44:44.075Z,100129.97
2024-01-22T15:47:08.815Z,100128.72
2024-01-22T15:49:32.615Z,100142.69
2024-01-22T15:51:57.952Z,100148.56
2024-01-22T15:54:22.677Z,100149.03
2024-01-22T15:56:46.473Z,100140.16
2024-01-22T15:59:10.412Z,100151.69
2024-01-22T16:01:34.206Z,100158.41
2024-01-22T16:03:57.969Z,100154.41
2024-01-22T16:06:23.874Z,100158.47
2024-01-22T16:08:49.970Z,100162.97
2024-01-22T16:11:13.749Z,100165.50
2024-01-22T16:13:37.523Z,100174.75
2024-01-22T16:16:01.255Z,100179.06
2024-01-22T16:18:25.151Z,100176.91
2024-01-22T16:20:49.173Z,100180.84
2024-01-22T16:23:13.358Z,100180.97
2024-01-22T16:25:38.574Z,100174.25
2024-01-22T16:28:03.481Z,100183.84
2024-01-22T16:30:27.371Z,100182.22
2024-01-22T16:32:51.477Z,100179.25
2024-01-22T16:35:15.430Z,100187.31
2024-01-22T16:37:39.661Z,100192.72
2024-01-22T16:40:05.144Z,100204.03
2024-01-22T16:42:30.411Z,100217.13
2024-01-22T16:44:54.082Z,100226.19
2024-01-22T16:47:18.051Z,100231.41
2024-01-22T16:49:43.576Z,100241.72
2024-01-22T16:52:09.335Z,100255.44
2024-01-22T16:54:33.754Z,100267.97
2024-01-22T16:56:59.219Z,100253.56
2024-01-22T16:59:25.034Z,100249.78
2024-01-22T17:01:49.991Z,100233.69
2024-01-22T17:04:15.583Z,100226.78
2024-01-22T17:06:41.604Z,100222.69
2024-01-22T17:09:08.340Z,100220.81
2024-01-22T17:11:34.109Z,100223.38
2024-01-22T17:13:59.705Z,100221.53
2024-01-22T17:16:27.742Z,100218.09
2024-01-22T17:18:54.539Z,100216.09
2024-01-22T17:21:21.556Z,100233.72
2024-01-22T17:23:47.971Z,100233.81
2024-01-22T17:26:14.084Z,100264.66
2024-01-22T17:28:42.528Z,100282.78
2024-01-22T17:31:08.908Z,100283.75
2024-01-22T17:33:38.832Z,100278.41
2024-01-22T17:36:06.129Z,100284.13
2024-01-22T17:38:31.618Z,100296.31
2024-01-22T17:40:59.679Z,100290.97
2024-01-22T17:43:25.788Z,100305.03
2024-01-22T17:45:49.847Z,100315.53
2024-01-22T17:48:14.031Z,100315.53
2024-01-22T17:50:39.246Z,100327.72
2024-01-22T17:53:04.197Z,100339.84
2024-01-22T17:55:33.252Z,100353.00
2024-01-22T17:57:57.664Z,100346.78
2024-01-22T18:00:24.649Z,100354.81
2024-01-22T18:02:48.499Z,100350.91
2024-01-22T18:05:13.191Z,100358.19
2024-01-22T18:07:38.551Z,100375.88
2024-01-22T18:10:02.776Z,100368.69
2024-01-22T18:12:26.466Z,100367.22
2024-01-22T18:14:49.274Z,100370.97
2024-01-22T18:17:12.934Z,100363.09
2024-01-22T18:19:36.795Z,100357.25
2024-01-22T18:22:00.494Z,100355.16
2024-01-22T18:24:25.831Z,100367.88
2024-01-22T18:26:49.652Z,100365.00
2024-01-22T18:29:13.559Z,100379.19
2024-01-22T18:31:37.256Z,100390.97
2024-01-22T18:34:01.069Z,100389.91
2024-01-22T18:36:25.609Z,100406.41
2024-01-22T18:38:49.904Z,100410.19
2024-01-22T18:41:23.983Z,100410.19
2024-01-22T18:43:47.814Z,100416.03
2024-01-22T18:46:16.342Z,100405.19
2024-01-22T18:48:41.466Z,100426.53
2024-01-22T18:51:05.795Z,100434.88
2024-01-22T18:53:29.544Z,100435.69
2024-01-22T18:55:53.271Z,100439.19
2024-01-22T18:58:18.595Z,100443.03
2024-01-22T19:00:42.503Z,100449.84
2024-01-22T19:03:06.663Z,100458.38
2024-01-22T19:05:30.359Z,100451.72
2024-01-22T19:07:54.162Z,100455.09
2024-01-22T19:10:17.944Z,100460.44
2024-01-22T19:12:41.656Z,100460.38
2024-01-22T19:15:08.184Z,100465.59
2024-01-22T19:17:32.030Z,100458.09
2024-01-22T19:19:55.824Z,100456.50
2024-01-22T19:22:19.608Z,100454.59
2024-01-22T19:24:44.105Z,100469.03
2024-01-22T19:27:07.917Z,100460.72
2024-01-22T19:29:31.722Z,100463.91
2024-01-22T19:31:57.100Z,100465.78
2024-01-22T19:34:20.948Z,100466.72
2024-01-22T19:36:44.681Z,100471.16
2024-01-22T19:39:08.682Z,100481.63
2024-01-22T19:41:32.474Z,100488.69
2024-01-22T19:43:56.350Z,100497.88
2024-01-22T19:46:20.802Z,100506.94
2024-01-22T19:48:46.036Z,100508.34
2024-01-22T19:51:09.768Z,100526.00
2024-01-22T19:53:34.173Z,100522.91
2024-01-22T19:55:58.029Z,100535.59
2024-01-22T19:58:21.691Z,100540.94
2024-01-22T20:00:45.460Z,100554.09
2024-01-22T20:03:09.223Z,100556.75
2024-01-22T20:05:34.458Z,100564.41
2024-01-22T20:07:58.139Z,100568.81
2024-01-22T20:10:22.540Z,100581.84
2024-01-22T20:12:46.264Z,100573.66
2024-01-22T20:15:10.933Z,100569.56
2024-01-22T20:17:34.805Z,100580.06
2024-01-22T20:19:58.647Z,100579.81
2024-01-22T20:22:23.766Z,100593.53
2024-01-22T20:24:47.535Z,100591.06
2024-01-22T20:27:11.330Z,100590.56
2024-01-22T20:29:35.167Z,100595.47
2024-01-22T20:31:59.099Z,100595.66
2024-01-22T20:34:22.906Z,100601.56
2024-01-22T20:36:46.686Z,100609.56
2024-01-22T20:39:12.133Z,100619.50
2024-01-22T20:41:35.847Z,100622.81
2024-01-22T20:43:59.608Z,100638.63
2024-01-22T20:46:23.318Z,100643.97
2024-01-22T20:48:47.168Z,100644.19
2024-01-22T20:51:11.578Z,100656.03
2024-01-22T20:53:36.530Z,100664.69
2024-01-22T20:56:01.647Z,100675.09
2024-01-22T20:58:28.353Z,100669.00
2024-01-22T21:00:52.487Z,100676.78
2024-01-22T21:03:16.851Z,100684.16
2024-01-22T21:05:40.690Z,100700.63
2024-01-22T21:08:05.648Z,100689.72
2024-01-22T21:10:29.419Z,100692.25
2024-01-22T21:12:54.557Z,100684.47
2024-01-22T21:15:18.397Z,100685.53
2024-01-22T21:17:43.326Z,100684.06
2024-01-22T21:20:09.007Z,100673.69
2024-01-22T21:22:32.861Z,100675.72
2024-01-22T21:24:56.835Z,100678.69
2024-01-22T21:27:20.752Z,100685.84
2024-01-22T21:29:45.967Z,100692.06
2024-01-22T21:32:09.876Z,100681.81
2024-01-22T21:34:33.730Z,100685.09
2024-01-22T21:36:57.621Z,100687.78
2024-01-22T21:39:21.313Z,100687.16
2024-01-22T21:41:45.294Z,100691.84
2024-01-22T21:44:08.992Z,100683.91
2024-01-22T21:46:33.105Z,100687.69
2024-01-22T21:48:56.904Z,100686.59
2024-01-22T21:51:20.723Z,100692.63
2024-01-22T21:53:45.774Z,100688.88
2024-01-22T21:56:10.089Z,100693.81
2024-01-22T21:58:33.784Z,100698.19
2024-01-22T22:00:57.656Z,100705.47
2024-01-22T22:03:24.844Z,100706.81
2024-01-22T22:05:49.428Z,100703.06
2024-01-22T22:08:13.405Z,100718.31
2024-01-22T22:10:37.209Z,100704.97
2024-01-22T22:13:00.969Z,100713.41
2024-01-22T22:15:24.982Z,100701.06
2024-01-22T22:17:50.438Z,100698.91
2024-01-22T22:20:16.545Z,100702.69
2024-01-22T22:22:40.489Z,100708.66
2024-01-22T22:25:04.297Z,100710.44
2024-01-22T22:27:28.008Z,100699.00
2024-01-22T22:29:52.009Z,100703.38
2024-01-22T22:32:15.797Z,100706.34
2024-01-22T22:34:39.605Z,100697.03
2024-01-22T22:37:04.797Z,100691.63
2024-01-22T22:39:28.744Z,100692.16
2024-01-22T22:41:52.475Z,100693.06
2024-01-22T22:44:16.785Z,100696.34
2024-01-22T22:46:42.835Z,100704.34
2024-01-22T22:49:07.671Z,100706.88
2024-01-22T22:51:31.548Z,100708.13
2024-01-22T22:53:56.739Z,100720.16
2024-01-22T22:56:20.489Z,100718.09
2024-01-22T22:58:44.636Z,100716.94
2024-01-22T23:01:10.527Z,100720.47
2024-01-22T23:03:34.448Z,100725.03
2024-01-22T23:05:58.265Z,100727.13
2024-01-22T23:08:22.157Z,100730.72
2024-01-22T23:10:47.308Z,100733.22
2024-01-22T23:13:11.048Z,100727.75
2024-01-22T23:15:34.915Z,100719.03
2024-01-22T23:17:58.813Z,100724.66
2024-01-22T23:20:22.546Z,100720.31
2024-01-22T23:22:46.313Z,100709.91
2024-01-22T23:25:10.672Z,100709.78
2024-01-22T23:27:36.178Z,100713.56
2024-01-22T23:29:59.882Z,100713.31
2024-01-22T23:32:24.003Z,100723.13
2024-01-22T23:34:47.772Z,100704.78
2024-01-22T23:37:11.545Z,100710.63
2024-01-22T23:39:35.599Z,100714.63
2024-01-22T23:41:59.403Z,100718.72
2024-01-22T23:44:23.481Z,100709.09
2024-01-22T23:46:47.265Z,100713.38
2024-01-22T23:49:10.998Z,100714.16
2024-01-22T23:51:34.892Z,100715.16
2024-01-22T23:53:58.652Z,100717.44
2024-01-22T23:56:22.981Z,100721.16
2024-01-22T23:58:47.192Z,100705.69
